Alda, NE

5:59 PM CST on February 07, 2016 (GMT -0600)
Riverside/Barr | | Change Station
CLOSE
Current Station
Personal Weather Station
Location: Grand Island, NE
Elevation: 1856 ft
Nearby Weather Stations

Elev 1856 ft 40.90 °N, 98.35 °W | Updated 4 seconds ago

Mostly Cloudy
Mostly Cloudy
38.4 °F
Feels Like 35 °F
N
5.0
Wind Variable Wind from NW
Gusts 13.0 mph

Today
High -- | Low -- °F
--% Chance of Precip.
Yesterday
High -- | Low -- °F
Precip. -- in
Pressure 30.13 in
Visibility 10.0 miles
Clouds Few 7000 ft
Windchill 35 °F
Dew Point 22 °F
Humidity 52%
Rainfall 0.00 in
Snow Depth Not available.
7:38 AM 5:58 PM
Waning Crescent, 1% visible
METAR KGRI 072353Z 32015KT 10SM FEW070 03/M07 A3008 RMK AO2 PK WND 32032/2301 SLP203 T00281067 10056 20028 53006
Pressure 30.13 in
Visibility 10.0 miles
Clouds Few 7000 ft
Windchill 35 °F
Dew Point 22 °F
Humidity 52%
Rainfall 0.00 in
Snow Depth Not available.
7:38 AM 5:58 PM
Waning Crescent, 1% visible
METAR KGRI 072353Z 32015KT 10SM FEW070 03/M07 A3008 RMK AO2 PK WND 32032/2301 SLP203 T00281067 10056 20028 53006

10-Day Weather Forecast

Almanac

Astronomy

Feb. 07, 2016 Rise Set
Actual Time
Civil Twilight
Nautical Twilight
Astronomical Twilight
Moon
Length of Visible Light
Length of Day
Tomorrow will be .
, % of the Moon is Illuminated

Today's Extremes

State Highs State Lows

Community

WunderPhotos

Upload Photos

1,891,329 photos uploaded!

WunderBlog® & News

Nearby

Air Quality

  Air Quality AQ Index Pollutant
Not available.

Snow Depth

Station Depth Elevation

Earthquake Activity

City Distance Mag. Time & Date
Minimum magnitude displayed is 2.5.

Coastal Water Temperatures

Place Temperature

Stations

Nearby Weather Stations

Station Location Temp. Windchill Dew Point Humidity Wind Precip. Elev Updated Type
                   

Watches & Warnings

There are currently no watches in effect.